This is the latest recevied weather packets stored in our database for station/object N9XTN-3. If no packets are shown the sender has not sent any weather packets the latest 10 day(s).
| Time | Temp. | Humidity | Pressure | Rain* | Wind** | Luminosity | Snow |
|---|---|---|---|---|---|---|---|
| 1777825816 | 21.11° C | 34% | 1012 hPa | 0 mm | - | - | - |
| 1777823416 | 19.44° C | 41% | 1012.2 hPa | 0 mm | - | - | - |
| 1777823116 | 19.44° C | 40% | 1012.1 hPa | 0 mm | - | - | - |
| 1777822816 | 18.89° C | 42% | 1012.1 hPa | 0 mm | - | - | - |
| 1777821316 | 17.22° C | 47% | 1011.7 hPa | 0 mm | - | - | - |
| 1777819516 | 16.11° C | 50% | 1011.9 hPa | 0 mm | - | - | - |
| 1777819216 | 16.11° C | 50% | 1012 hPa | 0 mm | - | - | - |
| 1777816816 | 14.44° C | 55% | 1011.3 hPa | 0 mm | - | - | - |
| 1777814716 | 13.33° C | 58% | 1011.1 hPa | 0 mm | - | - | - |
| 1777812956 | 12.22° C | 57% | 1010.6 hPa | 0 mm | - | - | - |
| 1777812616 | 12.22° C | 57% | 1010.8 hPa | 0 mm | - | - | - |
| 1777812316 | 12.22° C | 57% | 1011 hPa | 0 mm | - | - | - |
| 1777810537 | 11.67° C | 57% | 1010.8 hPa | 0 mm | - | - | - |
| 1777809616 | 11.67° C | 54% | 1010.2 hPa | 0 mm | - | - | - |
| 1777808716 | 11.67° C | 53% | 1010.6 hPa | 0 mm | - | - | - |
| 1777808116 | 11.67° C | 53% | 1010.6 hPa | 0 mm | - | - | - |
| 1777807836 | 11.11° C | 54% | 1010.6 hPa | 0 mm | - | - | - |
| 1777805417 | 11.11° C | 53% | 1010.6 hPa | 0 mm | - | - | - |
| 1777804517 | 11.67° C | 49% | 1010.7 hPa | 0 mm | - | - | - |
| 1777802716 | 12.78° C | 47% | 1011.3 hPa | 0 mm | - | - | - |
| 1777801216 | 12.78° C | 47% | 1011.2 hPa | 0 mm | - | - | - |
| 1777799736 | 12.78° C | 48% | 1010.1 hPa | 0 mm | - | - | - |
| 1777795216 | 12.78° C | 46% | 1010.6 hPa | 0 mm | - | - | - |
| 1777794016 | 12.78° C | 47% | 1010.9 hPa | 0 mm | - | - | - |
| 1777790436 | 13.33° C | 46% | 1011.4 hPa | 0 mm | - | - | - |
* Rain latest hour (hover to see other rain measurements)
** Current wind speed in m/s (hover to see current wind gust speed)